Portada
METAR-TAF:

METAR-TAF

Aeroports :

Singapur, Singapur

latitud: 01-25-08N, longitud: 103-51-57E, altitud: 11 m

Observació

L'informe es va fer fa 13 minuts, a les 16:00 UTC
Vent 6 kt del Nord-Est
Temperatura 27°C
Humitat 84%
Pressió 1011 hPa
Visibilitat 10 km o més
Escasses núvols a una alçada de 1600 ft
Cel ennuvolat a una alçada de 30000 ft

METAR: WSSL 281600Z 04006KT 9999 FEW016 BKN300 27/24 Q1011

Hora: 00:13 (16:13 UTC)

Pronòstic

L'informe es va fer fa 5 hores i 13 minuts, a les 11:00 UTC
Pronòstic vàlid del 28 a les 12 UTC al 29 a les 18 UTC
Vent 9 kt del Nord
Visibilitat 10 km o més
Escasses núvols a una alçada de 1500 ft
Núvols disperses a una alçada de 2000 ft
Temporalment
l' 29 a les 05 UTC al 29 a les 09 UTC
Visibilitat: 3000 m
Escasses núvols a una alçada de 1200 ft, Cumulonimbus.
Cel ennuvolat a una alçada de 1500 ft
tempesta, pluja

TAF: WSSL 281100Z 2812/2918 35009KT 9999 FEW015 SCT020 TEMPO 2905/2909 3000 TSRA FEW012CB BKN015

Observacions i pronòstics meteorològics de més de 4000 aeroports (METAR i TAF).

Les estacions disponibles són els punts grocs i vermells al mapa.

Posi el ratolí al punt desitjat per veure el nom de l'estació.

Feu clic per veure les observacions i els pronòstics meteorològics.

Per canviar el mapa: feu clic els botons verds amb una creu de color negre per apropar; al botó verd amb un guió per allunyar la imatge; o en les fletxes verdes per a mapes adjacents.


METAR-TAF: